createdAt,value
2023-01-08T00:01:19.607Z,10.86
2023-01-08T00:03:46.615Z,10.82
2023-01-08T00:06:16.016Z,10.88
2023-01-08T00:08:43.862Z,10.88
2023-01-08T00:11:11.237Z,10.89
2023-01-08T00:13:37.900Z,10.89
2023-01-08T00:16:08.867Z,10.89
2023-01-08T00:18:35.729Z,10.89
2023-01-08T00:21:05.028Z,10.89
2023-01-08T00:23:31.809Z,10.89
2023-01-08T00:26:02.471Z,10.89
2023-01-08T00:28:29.361Z,10.90
2023-01-08T00:30:56.103Z,10.89
2023-01-08T00:33:25.310Z,10.83
2023-01-08T00:35:51.831Z,10.81
2023-01-08T00:38:18.412Z,10.82
2023-01-08T00:40:45.110Z,10.89
2023-01-08T00:43:13.786Z,10.87
2023-01-08T00:45:40.377Z,10.77
2023-01-08T00:48:06.984Z,10.81
2023-01-08T00:50:33.696Z,10.76
2023-01-08T00:53:00.858Z,10.72
2023-01-08T00:55:27.441Z,10.72
2023-01-08T00:57:53.948Z,10.77
2023-01-08T01:00:22.733Z,10.78
2023-01-08T01:02:49.332Z,10.73
2023-01-08T01:05:17.031Z,10.76
2023-01-08T01:07:46.915Z,10.76
2023-01-08T01:10:15.492Z,10.74
2023-01-08T01:12:42.335Z,10.71
2023-01-08T01:15:11.808Z,10.67
2023-01-08T01:17:40.116Z,10.68
2023-01-08T01:20:07.994Z,10.63
2023-01-08T01:22:37.834Z,10.63
2023-01-08T01:25:04.874Z,10.56
2023-01-08T01:27:33.922Z,10.61
2023-01-08T01:30:00.514Z,10.62
2023-01-08T01:32:27.202Z,10.67
2023-01-08T01:34:55.986Z,10.66
2023-01-08T01:37:22.482Z,10.67
2023-01-08T01:39:49.138Z,10.63
2023-01-08T01:42:39.054Z,10.74
2023-01-08T01:45:17.617Z,10.71
2023-01-08T01:47:49.097Z,10.69
2023-01-08T01:50:22.928Z,10.71
2023-01-08T01:53:07.307Z,10.70
2023-01-08T01:55:38.039Z,10.66
2023-01-08T01:58:15.238Z,10.69
2023-01-08T02:00:43.256Z,10.71
2023-01-08T02:03:14.835Z,10.67
2023-01-08T02:05:56.729Z,10.68
2023-01-08T02:08:47.843Z,10.69
2023-01-08T02:11:26.692Z,10.69
2023-01-08T02:14:05.489Z,10.69
2023-01-08T02:16:44.677Z,10.68
2023-01-08T02:19:21.596Z,10.68
2023-01-08T02:22:02.781Z,10.61
2023-01-08T02:24:46.758Z,10.58
2023-01-08T02:27:15.518Z,10.55
2023-01-08T02:29:44.589Z,10.51
2023-01-08T02:32:11.588Z,10.49
2023-01-08T02:34:40.603Z,10.46
2023-01-08T02:37:08.913Z,10.42
2023-01-08T02:40:03.931Z,10.36
2023-01-08T02:42:49.761Z,10.42
2023-01-08T02:45:22.312Z,10.35
2023-01-08T02:48:00.018Z,10.29
2023-01-08T02:50:59.661Z,10.22
2023-01-08T02:53:37.652Z,10.22
2023-01-08T02:56:09.445Z,10.21
2023-01-08T02:58:38.838Z,10.18
2023-01-08T03:01:09.594Z,10.16
2023-01-08T03:03:38.936Z,10.14
2023-01-08T03:06:14.392Z,10.13
2023-01-08T03:08:44.133Z,10.09
2023-01-08T03:11:14.942Z,10.02
2023-01-08T03:14:14.261Z,10.02
2023-01-08T03:16:59.927Z,9.94
2023-01-08T03:19:33.030Z,9.95
2023-01-08T03:22:06.901Z,9.97
2023-01-08T03:24:37.685Z,9.96
2023-01-08T03:27:13.020Z,9.94
2023-01-08T03:29:40.635Z,9.93
2023-01-08T03:32:13.872Z,9.91
2023-01-08T03:34:46.338Z,9.91
2023-01-08T03:37:14.703Z,9.86
2023-01-08T03:39:49.767Z,9.84
2023-01-08T03:42:19.713Z,9.82
2023-01-08T03:44:46.862Z,9.78
2023-01-08T03:47:14.938Z,9.79
2023-01-08T03:49:43.838Z,9.79
2023-01-08T03:52:21.675Z,9.76
2023-01-08T03:54:48.197Z,9.60
2023-01-08T03:57:14.739Z,9.70
2023-01-08T03:59:41.324Z,9.67
2023-01-08T04:02:10.476Z,9.69
2023-01-08T04:04:37.485Z,9.64
2023-01-08T04:07:04.169Z,9.69
2023-01-08T04:09:30.701Z,9.73
2023-01-08T04:11:57.368Z,9.72
2023-01-08T04:14:23.927Z,9.72
2023-01-08T04:16:52.777Z,9.64
2023-01-08T04:19:19.409Z,9.68
2023-01-08T04:21:45.997Z,9.69
2023-01-08T04:24:12.901Z,9.65
2023-01-08T04:26:41.794Z,9.67
2023-01-08T04:29:08.327Z,9.66
2023-01-08T04:31:34.862Z,9.65
2023-01-08T04:34:01.401Z,9.65
2023-01-08T04:36:27.973Z,9.60
2023-01-08T04:38:54.513Z,9.46
2023-01-08T04:41:23.625Z,9.62
2023-01-08T04:43:50.388Z,9.57
2023-01-08T04:46:17.053Z,9.53
2023-01-08T04:48:43.713Z,9.61
2023-01-08T04:51:12.859Z,9.61
2023-01-08T04:53:41.245Z,9.50
2023-01-08T04:56:09.976Z,9.58
2023-01-08T04:58:37.613Z,9.57
2023-01-08T05:01:12.872Z,9.50
2023-01-08T05:03:39.552Z,9.51
2023-01-08T05:06:09.825Z,9.54
2023-01-08T05:08:41.167Z,9.54
2023-01-08T05:11:08.313Z,9.48
2023-01-08T05:13:34.829Z,9.52
2023-01-08T05:16:01.764Z,9.52
2023-01-08T05:18:30.225Z,9.50
2023-01-08T05:21:05.087Z,9.47
2023-01-08T05:23:32.945Z,9.49
2023-01-08T05:26:07.406Z,9.37
2023-01-08T05:28:34.599Z,9.46
2023-01-08T05:31:01.203Z,9.44
2023-01-08T05:33:28.067Z,9.40
2023-01-08T05:35:54.778Z,9.37
2023-01-08T05:38:21.467Z,9.40
2023-01-08T05:40:48.051Z,9.40
2023-01-08T05:43:14.613Z,9.39
2023-01-08T05:45:41.175Z,9.37
2023-01-08T05:48:10.185Z,9.30
2023-01-08T05:50:36.787Z,9.32
2023-01-08T05:53:07.729Z,9.27
2023-01-08T05:55:34.748Z,9.16
2023-01-08T05:58:05.279Z,9.06
2023-01-08T06:00:33.747Z,8.98
2023-01-08T06:03:00.499Z,8.95
2023-01-08T06:05:27.225Z,8.82
2023-01-08T06:07:56.268Z,8.78
2023-01-08T06:10:27.551Z,8.73
2023-01-08T06:12:55.408Z,8.67
2023-01-08T06:15:22.042Z,8.59
2023-01-08T06:17:51.031Z,8.54
2023-01-08T06:20:19.768Z,8.49
2023-01-08T06:22:46.302Z,8.45
2023-01-08T06:25:12.889Z,8.37
2023-01-08T06:27:40.638Z,8.37
2023-01-08T06:30:08.217Z,8.32
2023-01-08T06:32:36.930Z,8.28
2023-01-08T06:35:05.911Z,8.24
2023-01-08T06:37:34.980Z,8.18
2023-01-08T06:40:01.599Z,8.14
2023-01-08T06:42:28.207Z,8.14
2023-01-08T06:44:57.287Z,8.09
2023-01-08T06:47:23.823Z,8.03
2023-01-08T06:49:50.320Z,8.04
2023-01-08T06:52:16.938Z,7.93
2023-01-08T06:54:43.458Z,7.95
2023-01-08T06:57:09.968Z,7.87
2023-01-08T06:59:39.008Z,7.86
2023-01-08T07:02:05.677Z,7.87
2023-01-08T07:04:32.339Z,7.87
2023-01-08T07:06:58.906Z,7.83
2023-01-08T07:09:25.480Z,7.83
2023-01-08T07:11:52.052Z,7.82
2023-01-08T07:14:18.813Z,7.77
2023-01-08T07:16:45.383Z,7.81
2023-01-08T07:19:11.897Z,7.85
2023-01-08T07:21:40.910Z,7.85
2023-01-08T07:24:07.741Z,7.87
2023-01-08T07:26:36.720Z,7.87
2023-01-08T07:29:06.846Z,7.90
2023-01-08T07:31:33.512Z,7.90
2023-01-08T07:34:00.117Z,7.88
2023-01-08T07:36:26.674Z,7.86
2023-01-08T07:38:53.321Z,7.84
2023-01-08T07:41:22.436Z,7.84
2023-01-08T07:43:49.184Z,7.84
2023-01-08T07:46:18.112Z,7.80
2023-01-08T07:48:44.630Z,7.76
2023-01-08T07:51:13.626Z,7.74
2023-01-08T07:53:40.307Z,7.71
2023-01-08T07:56:10.071Z,7.67
2023-01-08T07:58:39.809Z,7.66
2023-01-08T08:01:12.720Z,7.60
2023-01-08T08:03:39.748Z,7.66
2023-01-08T08:06:07.375Z,7.63
2023-01-08T08:08:34.055Z,7.66
2023-01-08T08:11:00.884Z,7.72
2023-01-08T08:13:27.802Z,7.74
2023-01-08T08:15:54.429Z,7.78
2023-01-08T08:18:21.118Z,7.82
2023-01-08T08:20:49.351Z,7.84
2023-01-08T08:23:16.137Z,7.86
2023-01-08T08:25:45.546Z,7.92
2023-01-08T08:28:12.611Z,7.91
2023-01-08T08:30:42.402Z,8.04
2023-01-08T08:33:10.251Z,8.08
2023-01-08T08:35:37.025Z,8.10
2023-01-08T08:38:04.569Z,8.15
2023-01-08T08:40:31.719Z,8.17
2023-01-08T08:43:00.022Z,8.31
2023-01-08T08:45:27.432Z,8.39
2023-01-08T08:47:54.344Z,8.49
2023-01-08T08:50:21.728Z,8.60
2023-01-08T08:52:49.099Z,8.71
2023-01-08T08:55:18.973Z,8.84
2023-01-08T08:57:47.000Z,8.94
2023-01-08T09:00:15.073Z,8.96
2023-01-08T09:02:44.540Z,9.00
2023-01-08T09:05:13.375Z,8.95
2023-01-08T09:07:44.751Z,8.88
2023-01-08T09:10:11.438Z,8.83
2023-01-08T09:12:40.214Z,8.79
2023-01-08T09:15:09.447Z,8.75
2023-01-08T09:17:36.942Z,8.71
2023-01-08T09:20:05.676Z,8.60
2023-01-08T09:22:34.731Z,8.55
2023-01-08T09:25:03.808Z,8.46
2023-01-08T09:27:32.674Z,8.40
2023-01-08T09:29:59.236Z,8.35
2023-01-08T09:32:25.773Z,8.33
2023-01-08T09:34:54.753Z,8.26
2023-01-08T09:37:23.785Z,8.26
2023-01-08T09:39:57.707Z,8.23
2023-01-08T09:42:30.483Z,8.11
2023-01-08T09:45:00.208Z,8.18
2023-01-08T09:47:36.727Z,8.00
2023-01-08T09:50:08.201Z,8.13
2023-01-08T09:52:34.749Z,8.10
2023-01-08T09:55:01.659Z,8.15
2023-01-08T09:57:29.173Z,8.13
2023-01-08T09:59:57.938Z,8.16
2023-01-08T10:02:26.396Z,8.27
2023-01-08T10:04:59.000Z,8.33
2023-01-08T10:07:27.501Z,8.47
2023-01-08T10:09:55.452Z,8.59
2023-01-08T10:12:32.890Z,8.71
2023-01-08T10:15:11.365Z,8.80
2023-01-08T10:17:40.669Z,8.89
2023-01-08T10:20:22.662Z,8.99
2023-01-08T10:22:56.604Z,9.05
2023-01-08T10:25:26.145Z,9.15
2023-01-08T10:27:59.320Z,9.21
2023-01-08T10:30:36.681Z,9.10
2023-01-08T10:33:10.811Z,9.33
2023-01-08T10:35:42.638Z,9.42
2023-01-08T10:39:01.107Z,9.55
2023-01-08T10:41:28.740Z,9.59
2023-01-08T10:44:14.620Z,9.58
2023-01-08T10:46:45.178Z,9.70
2023-01-08T10:49:23.536Z,9.76
2023-01-08T10:51:52.387Z,9.76
2023-01-08T10:54:33.943Z,9.91
2023-01-08T10:57:02.537Z,9.96
2023-01-08T10:59:29.627Z,10.02
2023-01-08T11:01:58.292Z,10.09
2023-01-08T11:04:36.289Z,10.15
2023-01-08T11:07:05.793Z,10.11
2023-01-08T11:09:46.056Z,10.13
2023-01-08T11:12:34.265Z,10.19
2023-01-08T11:15:01.354Z,10.22
2023-01-08T11:17:28.568Z,10.35
2023-01-08T11:20:08.046Z,10.41
2023-01-08T11:22:34.629Z,10.48
2023-01-08T11:25:01.253Z,10.54
2023-01-08T11:27:36.758Z,10.55
2023-01-08T11:30:20.256Z,10.62
2023-01-08T11:32:54.931Z,10.72
2023-01-08T11:35:25.190Z,10.79
2023-01-08T11:37:55.489Z,10.82
2023-01-08T11:40:35.993Z,10.85
2023-01-08T11:43:32.288Z,10.98
2023-01-08T11:45:58.753Z,11.10
2023-01-08T11:48:49.797Z,11.13
2023-01-08T11:51:50.863Z,11.14
2023-01-08T11:54:28.786Z,11.24
2023-01-08T11:57:09.544Z,11.22
2023-01-08T12:00:10.721Z,11.29
2023-01-08T12:02:51.832Z,11.38
2023-01-08T12:05:43.270Z,11.40
2023-01-08T12:08:21.755Z,11.38
2023-01-08T12:11:02.195Z,11.40
2023-01-08T12:13:31.661Z,11.44
2023-01-08T12:16:04.013Z,11.47
2023-01-08T12:18:39.772Z,11.48
2023-01-08T12:21:30.280Z,11.53
2023-01-08T12:24:16.884Z,11.48
2023-01-08T12:26:55.239Z,11.52
2023-01-08T12:29:42.175Z,11.51
2023-01-08T12:32:22.834Z,11.59
2023-01-08T12:35:15.294Z,11.62
2023-01-08T12:37:52.036Z,11.69
2023-01-08T12:40:37.669Z,11.68
2023-01-08T12:43:13.133Z,11.86
2023-01-08T12:45:45.322Z,12.00
2023-01-08T12:48:16.766Z,12.07
2023-01-08T12:51:24.094Z,12.16
2023-01-08T12:54:03.070Z,12.16
2023-01-08T12:56:40.510Z,12.19
2023-01-08T12:59:32.983Z,12.10
2023-01-08T13:02:26.011Z,12.03
2023-01-08T13:04:55.116Z,12.12
2023-01-08T13:07:27.905Z,12.12
2023-01-08T13:09:56.979Z,12.10
2023-01-08T13:12:39.527Z,11.98
2023-01-08T13:15:08.183Z,11.91
2023-01-08T13:17:37.557Z,11.77
2023-01-08T13:20:06.963Z,11.80
2023-01-08T13:22:40.503Z,11.81
2023-01-08T13:25:16.972Z,11.76
2023-01-08T13:27:45.393Z,11.73
2023-01-08T13:30:35.777Z,11.73
2023-01-08T13:33:02.929Z,11.75
2023-01-08T13:35:31.935Z,11.82
2023-01-08T13:38:10.789Z,11.81
2023-01-08T13:40:43.403Z,11.85
2023-01-08T13:43:36.807Z,11.80
2023-01-08T13:46:03.525Z,11.71
2023-01-08T13:48:35.291Z,11.63
2023-01-08T13:51:02.492Z,11.71
2023-01-08T13:53:29.367Z,11.69
2023-01-08T13:56:00.076Z,11.61
2023-01-08T13:58:35.754Z,11.59
2023-01-08T14:01:04.910Z,11.52
2023-01-08T14:03:44.357Z,11.45
2023-01-08T14:06:20.937Z,11.42
2023-01-08T14:08:59.932Z,11.36
2023-01-08T14:11:40.776Z,11.27
2023-01-08T14:14:12.842Z,11.15
2023-01-08T14:16:42.230Z,11.14
2023-01-08T14:19:12.247Z,11.03
2023-01-08T14:21:38.991Z,10.93
2023-01-08T14:24:14.895Z,10.89
2023-01-08T14:26:41.547Z,10.84
2023-01-08T14:29:16.815Z,10.84
2023-01-08T14:31:52.560Z,10.81
2023-01-08T14:34:21.338Z,10.74
2023-01-08T14:36:53.348Z,10.71
2023-01-08T14:39:40.243Z,10.67
2023-01-08T14:42:39.522Z,10.54
2023-01-08T14:45:36.021Z,10.56
2023-01-08T14:48:17.824Z,10.52
2023-01-08T14:50:52.389Z,10.49
2023-01-08T14:53:33.311Z,10.41
2023-01-08T14:56:01.209Z,10.37
2023-01-08T14:58:34.261Z,10.33
2023-01-08T15:01:05.919Z,10.33
2023-01-08T15:03:42.648Z,10.26
2023-01-08T15:06:14.105Z,10.25
2023-01-08T15:08:44.915Z,10.20
2023-01-08T15:11:49.228Z,10.15
2023-01-08T15:14:22.974Z,10.10
2023-01-08T15:16:50.074Z,10.03
2023-01-08T15:19:23.001Z,9.97
2023-01-08T15:21:51.138Z,9.95
2023-01-08T15:24:29.901Z,9.87
2023-01-08T15:26:57.358Z,9.80
2023-01-08T15:29:33.369Z,9.77
2023-01-08T15:32:15.201Z,9.69
2023-01-08T15:34:46.134Z,9.65
2023-01-08T15:37:14.666Z,9.64
2023-01-08T15:39:42.135Z,10.02
2023-01-08T15:42:38.151Z,9.69
2023-01-08T15:45:09.299Z,9.75
2023-01-08T15:47:35.819Z,9.70
2023-01-08T15:50:02.360Z,9.54
2023-01-08T15:52:31.436Z,9.44
2023-01-08T15:54:59.544Z,9.90
2023-01-08T15:57:26.438Z,9.57
2023-01-08T15:59:53.051Z,9.41
2023-01-08T16:02:22.624Z,9.35
2023-01-08T16:04:53.347Z,9.22
2023-01-08T16:07:22.326Z,9.22
2023-01-08T16:09:49.027Z,9.64
2023-01-08T16:12:15.608Z,9.33
2023-01-08T16:14:42.131Z,9.17
2023-01-08T16:17:09.984Z,9.17
2023-01-08T16:19:36.531Z,9.15
2023-01-08T16:22:04.659Z,9.25
2023-01-08T16:24:31.679Z,9.24
2023-01-08T16:26:58.289Z,9.18
2023-01-08T16:29:32.616Z,9.10
2023-01-08T16:31:59.275Z,9.03
2023-01-08T16:34:28.197Z,8.96
2023-01-08T16:36:57.234Z,8.92
2023-01-08T16:39:23.802Z,9.00
2023-01-08T16:41:52.607Z,9.00
2023-01-08T16:44:25.106Z,9.03
2023-01-08T16:46:52.802Z,9.12
2023-01-08T16:49:21.817Z,9.15
2023-01-08T16:51:48.644Z,9.21
2023-01-08T16:54:19.072Z,9.28
2023-01-08T16:56:45.932Z,9.33
2023-01-08T16:59:22.840Z,9.35
2023-01-08T17:01:49.718Z,9.43
2023-01-08T17:04:18.562Z,9.56
2023-01-08T17:06:46.803Z,9.53
2023-01-08T17:09:13.650Z,9.57
2023-01-08T17:11:40.195Z,9.54
2023-01-08T17:14:06.781Z,9.49
2023-01-08T17:16:33.456Z,9.43
2023-01-08T17:19:05.188Z,9.42
2023-01-08T17:21:34.105Z,9.38
2023-01-08T17:24:00.666Z,9.25
2023-01-08T17:26:29.723Z,9.26
2023-01-08T17:28:56.328Z,9.19
2023-01-08T17:31:25.621Z,9.18
2023-01-08T17:33:52.743Z,9.17
2023-01-08T17:36:22.137Z,9.17
2023-01-08T17:38:51.576Z,9.21
2023-01-08T17:41:37.777Z,9.26
2023-01-08T17:44:08.865Z,9.20
2023-01-08T17:46:43.965Z,9.12
2023-01-08T17:49:13.290Z,9.04
2023-01-08T17:51:41.533Z,8.99
2023-01-08T17:54:16.018Z,8.89
2023-01-08T17:56:43.255Z,8.87
2023-01-08T17:59:14.843Z,8.81
2023-01-08T18:01:41.971Z,8.71
2023-01-08T18:04:10.764Z,8.67
2023-01-08T18:06:37.526Z,8.69
2023-01-08T18:09:06.960Z,8.69
2023-01-08T18:11:33.478Z,8.71
2023-01-08T18:14:02.145Z,8.77
2023-01-08T18:16:32.583Z,8.83
2023-01-08T18:19:00.126Z,8.74
2023-01-08T18:21:30.508Z,8.86
2023-01-08T18:23:57.188Z,8.87
2023-01-08T18:26:23.999Z,8.89
2023-01-08T18:28:52.123Z,8.93
2023-01-08T18:31:19.077Z,8.93
2023-01-08T18:33:45.840Z,8.95
2023-01-08T18:36:12.960Z,8.89
2023-01-08T18:38:41.700Z,8.92
2023-01-08T18:41:09.965Z,8.81
2023-01-08T18:43:37.187Z,8.90
2023-01-08T18:46:07.695Z,8.83
2023-01-08T18:48:37.680Z,8.83
2023-01-08T18:51:05.787Z,8.72
2023-01-08T18:53:33.504Z,8.68
2023-01-08T18:56:02.995Z,8.59
2023-01-08T18:58:29.930Z,8.52
2023-01-08T19:01:05.316Z,8.52
2023-01-08T19:03:32.265Z,8.50
2023-01-08T19:06:01.286Z,8.54
2023-01-08T19:08:27.897Z,8.60
2023-01-08T19:10:54.527Z,8.66
2023-01-08T19:13:21.148Z,8.63
2023-01-08T19:15:50.227Z,8.70
2023-01-08T19:18:17.083Z,8.73
2023-01-08T19:20:46.165Z,8.72
2023-01-08T19:23:13.836Z,8.83
2023-01-08T19:25:42.813Z,8.84
2023-01-08T19:28:14.244Z,8.85
2023-01-08T19:30:40.996Z,8.86
2023-01-08T19:33:07.955Z,8.94
2023-01-08T19:35:41.331Z,8.93
2023-01-08T19:38:08.043Z,8.95
2023-01-08T19:40:34.564Z,8.90
2023-01-08T19:43:19.947Z,8.81
2023-01-08T19:45:48.977Z,8.77
2023-01-08T19:48:15.715Z,8.82
2023-01-08T19:50:42.650Z,8.89
2023-01-08T19:53:09.217Z,8.76
2023-01-08T19:55:37.282Z,8.76
2023-01-08T19:58:06.663Z,8.77
2023-01-08T20:00:37.463Z,8.70
2023-01-08T20:03:04.839Z,8.72
2023-01-08T20:05:33.639Z,8.69
2023-01-08T20:08:00.534Z,8.58
2023-01-08T20:10:27.264Z,8.67
2023-01-08T20:12:53.842Z,8.66
2023-01-08T20:15:21.965Z,8.64
2023-01-08T20:17:48.507Z,8.61
2023-01-08T20:20:17.615Z,8.61
2023-01-08T20:22:44.335Z,8.53
2023-01-08T20:25:13.143Z,8.59
2023-01-08T20:27:39.691Z,8.57
2023-01-08T20:30:08.601Z,8.48
2023-01-08T20:32:39.907Z,8.46
2023-01-08T20:35:08.794Z,8.30
2023-01-08T20:37:36.008Z,8.31
2023-01-08T20:40:02.586Z,8.25
2023-01-08T20:42:34.081Z,8.06
2023-01-08T20:45:01.193Z,8.13
2023-01-08T20:47:27.752Z,8.10
2023-01-08T20:49:56.681Z,8.04
2023-01-08T20:52:23.226Z,8.01
2023-01-08T20:54:53.053Z,7.97
2023-01-08T20:57:19.647Z,7.81
2023-01-08T20:59:48.420Z,7.82
2023-01-08T21:02:15.006Z,7.96
2023-01-08T21:04:43.752Z,7.93
2023-01-08T21:07:10.259Z,7.97
2023-01-08T21:09:38.519Z,7.93
2023-01-08T21:12:06.962Z,8.01
2023-01-08T21:14:33.753Z,7.98
2023-01-08T21:17:00.265Z,8.01
2023-01-08T21:19:28.893Z,7.94
2023-01-08T21:21:55.439Z,8.04
2023-01-08T21:24:21.959Z,8.09
2023-01-08T21:26:48.537Z,8.11
2023-01-08T21:29:19.907Z,8.06
2023-01-08T21:31:51.319Z,8.10
2023-01-08T21:34:17.944Z,8.13
2023-01-08T21:36:44.524Z,8.15
2023-01-08T21:39:13.672Z,8.10
2023-01-08T21:41:58.854Z,8.29
2023-01-08T21:44:44.565Z,8.24
2023-01-08T21:47:16.960Z,8.32
2023-01-08T21:49:45.048Z,8.41
2023-01-08T21:52:30.316Z,8.45
2023-01-08T21:54:59.474Z,8.44
2023-01-08T21:57:29.641Z,8.49
2023-01-08T21:59:56.542Z,8.50
2023-01-08T22:02:27.959Z,8.53
2023-01-08T22:04:56.066Z,8.56
2023-01-08T22:07:26.361Z,8.56
2023-01-08T22:09:53.180Z,8.47
2023-01-08T22:12:20.465Z,8.57
2023-01-08T22:14:47.009Z,8.53
2023-01-08T22:17:13.576Z,8.60
2023-01-08T22:19:40.730Z,8.68
2023-01-08T22:22:10.433Z,8.72
2023-01-08T22:24:40.878Z,8.70
2023-01-08T22:27:08.999Z,8.75
2023-01-08T22:29:36.629Z,8.73
2023-01-08T22:32:04.039Z,8.79
2023-01-08T22:34:32.102Z,8.81
2023-01-08T22:36:58.642Z,8.80
2023-01-08T22:39:25.451Z,8.80
2023-01-08T22:41:52.077Z,8.80
2023-01-08T22:44:18.667Z,8.77
2023-01-08T22:46:45.234Z,8.64
2023-01-08T22:49:13.317Z,8.58
2023-01-08T22:51:44.741Z,8.54
2023-01-08T22:54:13.331Z,8.47
2023-01-08T22:56:39.958Z,8.43
2023-01-08T22:59:06.607Z,8.39
2023-01-08T23:01:35.581Z,8.24
2023-01-08T23:04:02.590Z,8.30
2023-01-08T23:06:31.093Z,8.22
2023-01-08T23:09:00.951Z,8.21
2023-01-08T23:11:30.257Z,8.21
2023-01-08T23:13:56.832Z,8.26
2023-01-08T23:16:25.461Z,8.21
2023-01-08T23:18:56.055Z,8.17
2023-01-08T23:21:26.053Z,8.16
2023-01-08T23:23:52.871Z,8.20
2023-01-08T23:26:26.070Z,8.16
2023-01-08T23:28:53.555Z,8.10
2023-01-08T23:31:30.500Z,8.09
2023-01-08T23:33:57.944Z,8.08
2023-01-08T23:36:25.160Z,8.06
2023-01-08T23:38:54.541Z,7.99
2023-01-08T23:41:25.595Z,8.01
2023-01-08T23:43:52.169Z,7.91
2023-01-08T23:46:20.952Z,7.92
2023-01-08T23:48:47.593Z,7.93
2023-01-08T23:51:17.504Z,7.89
2023-01-08T23:53:44.091Z,7.88
2023-01-08T23:56:10.712Z,7.82
2023-01-08T23:58:37.767Z,7.78
